Time;durP1;ratioP1;P1;durP2;ratioP2;P2;SDS_P1;SDS_P2;PMS_P1;PMS_P2;Temp;Humidity;BMP_temperature;BMP_pressure;BME280_temperature;BME280_humidity;BME280_pressure;Samples;Min_cycle;Max_cycle;Signal;HPM_P1;HPM_P2
2021/05/28 00:02:14;;;;;;;6.87;4.70;;;10.40;86.50;;;;;;4962276;28;20187;-83
2021/05/28 00:04:41;;;;;;;11.77;5.90;;;10.40;87.30;;;;;;4979950;28;20208;-81
2021/05/28 00:07:08;;;;;;;17.70;5.40;;;10.40;86.40;;;;;;4961275;28;20188;-82
2021/05/28 00:09:34;;;;;;;8.10;5.43;;;10.40;86.40;;;;;;4976140;28;20446;-82
2021/05/28 00:11:59;;;;;;;12.47;4.47;;;10.40;86.50;;;;;;4943423;28;20427;-83
2021/05/28 00:14:25;;;;;;;13.47;5.80;;;10.50;86.80;;;;;;4959069;28;20408;-81
2021/05/28 00:16:51;;;;;;;9.43;4.90;;;10.50;86.70;;;;;;4958816;28;20250;-82
2021/05/28 00:19:16;;;;;;;9.40;3.97;;;10.50;86.80;;;;;;4958533;28;20219;-82
2021/05/28 00:21:42;;;;;;;8.70;4.90;;;10.50;86.60;;;;;;4976343;28;20168;-82
2021/05/28 00:24:08;;;;;;;12.27;4.70;;;10.50;86.50;;;;;;4958298;28;20820;-81
2021/05/28 00:26:34;;;;;;;20.80;5.20;;;10.50;86.30;;;;;;4977086;28;20185;-83
2021/05/28 00:29:00;;;;;;;7.20;4.80;;;10.50;86.40;;;;;;4984529;28;20404;-81
2021/05/28 00:31:26;;;;;;;8.00;4.40;;;10.50;86.30;;;;;;4998383;28;20183;-81
2021/05/28 00:33:51;;;;;;;7.37;4.80;;;10.50;86.40;;;;;;4989781;28;20412;-82
2021/05/28 00:36:18;;;;;;;10.73;5.00;;;10.50;86.30;;;;;;4978464;28;20189;-82
2021/05/28 00:38:44;;;;;;;8.77;4.73;;;10.50;86.40;;;;;;4957987;28;20169;-82
2021/05/28 00:41:11;;;;;;;5.00;4.03;;;10.50;86.50;;;;;;4957949;28;20763;-82
2021/05/28 00:43:38;;;;;;;6.17;3.60;;;10.50;86.40;;;;;;4958011;28;20506;-82
2021/05/28 00:46:04;;;;;;;11.47;5.10;;;10.50;86.40;;;;;;4972125;28;20427;-83
2021/05/28 00:48:30;;;;;;;9.33;4.20;;;10.50;86.50;;;;;;4995890;28;20654;-81
2021/05/28 00:50:56;;;;;;;12.40;5.93;;;10.60;86.50;;;;;;4996775;28;20149;-82
2021/05/28 00:53:24;;;;;;;7.13;4.17;;;10.60;86.50;;;;;;4996530;28;20251;-81
2021/05/28 00:55:50;;;;;;;11.67;5.50;;;10.60;86.50;;;;;;4979718;28;20431;-81
2021/05/28 00:58:17;;;;;;;7.00;4.77;;;10.60;86.30;;;;;;4950630;28;20426;-83
2021/05/28 01:00:43;;;;;;;8.33;3.70;;;10.60;86.40;;;;;;4961745;28;20436;-83
2021/05/28 01:03:09;;;;;;;14.47;4.90;;;10.60;86.50;;;;;;4953788;28;20725;-82
2021/05/28 01:05:35;;;;;;;8.03;4.57;;;10.60;86.40;;;;;;4995678;28;20200;-81
2021/05/28 01:08:01;;;;;;;6.60;4.33;;;10.60;86.50;;;;;;4979483;28;20416;-80
2021/05/28 01:10:26;;;;;;;8.93;4.70;;;10.60;86.40;;;;;;4995914;28;20463;-81
2021/05/28 01:13:00;;;;;;;7.00;4.30;;;10.60;86.40;;;;;;4981501;28;20196;-83
2021/05/28 01:15:26;;;;;;;11.07;5.63;;;10.60;86.30;;;;;;4979328;28;20219;-83
2021/05/28 01:17:52;;;;;;;9.80;5.23;;;10.60;86.20;;;;;;4964366;28;20423;-82
2021/05/28 01:20:17;;;;;;;9.93;5.00;;;10.60;86.30;;;;;;4970222;28;20181;-82
2021/05/28 01:22:43;;;;;;;10.37;5.40;;;10.60;86.30;;;;;;4969795;28;20181;-83
2021/05/28 01:25:09;;;;;;;11.30;5.43;;;10.60;86.30;;;;;;4987027;28;20294;-82
2021/05/28 01:27:35;;;;;;;7.50;4.60;;;10.60;86.40;;;;;;4963412;28;20168;-81
2021/05/28 01:30:01;;;;;;;8.27;4.23;;;10.60;86.40;;;;;;4983868;28;20424;-82
2021/05/28 01:32:27;;;;;;;10.70;5.10;;;10.60;86.40;;;;;;4949199;28;20168;-83
2021/05/28 01:34:52;;;;;;;11.67;5.90;;;10.60;86.50;;;;;;4948085;28;20502;-82
2021/05/28 01:37:18;;;;;;;9.77;5.07;;;10.60;86.50;;;;;;4968189;28;20199;-81
2021/05/28 01:39:49;;;;;;;13.17;5.77;;;10.60;86.70;;;;;;4957297;28;20658;-81
2021/05/28 01:42:16;;;;;;;12.63;3.77;;;10.60;86.60;;;;;;4972589;28;20228;-82
2021/05/28 01:44:43;;;;;;;11.10;4.80;;;10.70;86.70;;;;;;4969371;28;20455;-83
2021/05/28 01:47:09;;;;;;;10.73;5.20;;;10.60;86.60;;;;;;4964324;28;20435;-82
2021/05/28 01:49:39;;;;;;;9.40;4.43;;;10.60;86.70;;;;;;4990953;28;20415;-82
2021/05/28 01:52:05;;;;;;;10.23;4.80;;;10.60;86.80;;;;;;4995607;28;20411;-83
2021/05/28 01:54:33;;;;;;;8.93;4.90;;;10.60;86.90;;;;;;4981943;28;20404;-81
2021/05/28 01:57:01;;;;;;;7.63;5.47;;;10.50;87.00;;;;;;4965247;28;20415;-82
2021/05/28 01:59:27;;;;;;;8.63;4.67;;;10.50;87.40;;;;;;4971457;28;20492;-82
2021/05/28 02:01:53;;;;;;;9.03;5.27;;;10.40;87.30;;;;;;4991134;28;20420;-83
2021/05/28 02:04:20;;;;;;;7.13;5.13;;;10.30;87.70;;;;;;4985694;28;21086;-83
2021/05/28 02:06:46;;;;;;;10.40;5.77;;;10.20;88.10;;;;;;4964336;28;20431;-84
2021/05/28 02:09:12;;;;;;;10.40;6.03;;;10.10;88.40;;;;;;4964447;28;20427;-84
2021/05/28 02:11:37;;;;;;;7.47;6.13;;;10.00;88.70;;;;;;4986216;28;20412;-83
2021/05/28 02:14:05;;;;;;;8.50;4.87;;;10.00;89.20;;;;;;4981541;28;20176;-83
2021/05/28 02:16:31;;;;;;;12.40;5.87;;;9.90;90.30;;;;;;4980711;28;20279;-84
2021/05/28 02:18:57;;;;;;;9.47;5.53;;;9.80;90.40;;;;;;4979493;28;20411;-83
2021/05/28 02:21:23;;;;;;;13.97;6.63;;;9.80;90.70;;;;;;4947162;28;20431;-83
2021/05/28 02:23:49;;;;;;;14.90;6.57;;;9.70;90.60;;;;;;4979422;28;20200;-82
2021/05/28 02:26:15;;;;;;;12.40;5.80;;;9.70;90.80;;;;;;4958769;28;21032;-82
2021/05/28 02:28:40;;;;;;;9.73;5.13;;;9.70;91.00;;;;;;4980131;28;20166;-84
2021/05/28 02:31:06;;;;;;;11.60;5.73;;;9.60;91.00;;;;;;4961855;28;20411;-82
2021/05/28 02:33:35;;;;;;;13.43;6.10;;;9.50;91.00;;;;;;4961125;28;20175;-84
2021/05/28 02:36:03;;;;;;;9.60;6.20;;;9.50;91.10;;;;;;4960330;28;20212;-85
2021/05/28 02:38:29;;;;;;;10.00;5.80;;;9.40;91.20;;;;;;4977561;28;20412;-83
2021/05/28 02:40:54;;;;;;;11.13;6.50;;;9.40;91.30;;;;;;4978038;28;20450;-83
2021/05/28 02:43:20;;;;;;;11.47;6.80;;;9.40;91.40;;;;;;4978258;28;20169;-82
2021/05/28 02:45:46;;;;;;;13.00;6.97;;;9.40;91.50;;;;;;4945214;28;20196;-85
2021/05/28 02:48:11;;;;;;;9.27;5.77;;;9.30;91.50;;;;;;4960898;28;20643;-82
2021/05/28 02:50:37;;;;;;;15.10;7.43;;;9.30;91.50;;;;;;4960591;28;20172;-84
2021/05/28 02:53:03;;;;;;;8.70;6.13;;;9.30;91.60;;;;;;4978288;28;20169;-83
2021/05/28 02:55:30;;;;;;;7.13;6.37;;;9.20;91.60;;;;;;4978361;28;20189;-83
2021/05/28 02:57:55;;;;;;;9.57;6.77;;;9.20;91.60;;;;;;4960065;28;20420;-83
2021/05/28 03:00:22;;;;;;;11.13;6.00;;;9.20;91.70;;;;;;4977209;28;20419;-83
2021/05/28 03:02:48;;;;;;;13.40;8.50;;;9.20;91.70;;;;;;4944181;28;20199;-83
2021/05/28 03:05:14;;;;;;;9.27;7.13;;;9.10;91.70;;;;;;4960475;28;20467;-83
2021/05/28 03:07:40;;;;;;;10.53;6.30;;;9.10;91.70;;;;;;4962502;28;20407;-83
2021/05/28 03:10:06;;;;;;;11.60;7.07;;;9.10;91.80;;;;;;4962328;28;20420;-83
2021/05/28 03:12:32;;;;;;;12.77;6.97;;;9.10;91.80;;;;;;4961779;28;20243;-83
2021/05/28 03:14:58;;;;;;;10.67;6.60;;;9.10;91.80;;;;;;4977571;28;20450;-83
2021/05/28 03:17:24;;;;;;;17.20;8.20;;;9.10;91.80;;;;;;4961083;28;20259;-84
2021/05/28 03:19:50;;;;;;;10.63;7.20;;;9.20;91.70;;;;;;4998631;28;20169;-82
2021/05/28 03:22:34;;;;;;;9.50;7.10;;;9.20;91.70;;;;;;4979257;28;20422;-83
2021/05/28 03:25:08;;;;;;;13.83;8.70;;;9.20;91.70;;;;;;4959866;28;20501;-83
2021/05/28 03:27:34;;;;;;;8.90;6.90;;;9.20;91.60;;;;;;4977058;28;20431;-84
2021/05/28 03:30:00;;;;;;;12.20;7.17;;;9.20;91.60;;;;;;4976383;28;20414;-84
2021/05/28 03:32:26;;;;;;;12.10;7.50;;;9.30;91.60;;;;;;4977091;28;20476;-84
2021/05/28 03:34:56;;;;;;;14.33;8.83;;;9.30;91.50;;;;;;4959807;28;20451;-84
2021/05/28 03:37:22;;;;;;;15.67;7.47;;;9.30;91.40;;;;;;4959760;28;20180;-84
2021/05/28 03:39:49;;;;;;;15.30;9.77;;;9.30;91.40;;;;;;4980019;28;20467;-83
2021/05/28 03:42:14;;;;;;;14.50;9.50;;;9.20;91.50;;;;;;4980650;28;20408;-82
2021/05/28 03:44:40;;;;;;;13.33;9.10;;;9.20;91.60;;;;;;4967552;28;20465;-81
2021/05/28 03:47:06;;;;;;;14.67;9.37;;;9.20;91.60;;;;;;4979755;28;20165;-80
2021/05/28 03:49:32;;;;;;;13.73;8.50;;;9.10;91.70;;;;;;4979807;28;20195;-83
2021/05/28 03:51:58;;;;;;;18.97;8.20;;;9.10;91.70;;;;;;4984859;28;20420;-82
2021/05/28 03:54:23;;;;;;;11.80;8.10;;;9.10;91.80;;;;;;4952612;28;20207;-82
2021/05/28 03:56:49;;;;;;;15.97;8.43;;;9.10;91.80;;;;;;4969572;28;20176;-85
2021/05/28 03:59:15;;;;;;;14.23;9.03;;;9.00;91.80;;;;;;4968897;28;20451;-82
2021/05/28 04:01:41;;;;;;;12.03;8.27;;;9.00;91.80;;;;;;4969083;28;20427;-82
2021/05/28 04:04:07;;;;;;;12.80;8.47;;;9.00;91.80;;;;;;4988013;28;20482;-82
2021/05/28 04:06:33;;;;;;;10.23;7.63;;;9.00;91.80;;;;;;4969581;28;20196;-82
2021/05/28 04:08:58;;;;;;;15.33;8.03;;;9.00;91.80;;;;;;4987226;28;20172;-82
2021/05/28 04:11:24;;;;;;;17.10;8.50;;;9.00;91.70;;;;;;4971570;28;20304;-82
2021/05/28 04:13:51;;;;;;;11.40;7.73;;;9.00;91.70;;;;;;4985837;28;20192;-83
2021/05/28 04:16:16;;;;;;;15.83;8.07;;;9.00;91.70;;;;;;4977872;28;20470;-82
2021/05/28 04:18:42;;;;;;;9.20;7.40;;;9.10;91.80;;;;;;4963757;28;20416;-82
2021/05/28 04:21:08;;;;;;;17.43;8.73;;;9.10;91.70;;;;;;4986532;28;20218;-83
2021/05/28 04:23:34;;;;;;;12.73;8.70;;;9.10;91.60;;;;;;4945296;28;20186;-83
2021/05/28 04:26:00;;;;;;;19.97;9.20;;;9.10;91.60;;;;;;4960740;28;20192;-83
2021/05/28 04:28:27;;;;;;;19.40;9.27;;;9.10;91.50;;;;;;4978090;28;20458;-83
2021/05/28 04:30:56;;;;;;;20.13;9.50;;;9.10;91.50;;;;;;4959761;28;20416;-83
2021/05/28 04:33:23;;;;;;;12.47;9.03;;;9.10;91.50;;;;;;4944889;28;20428;-83
2021/05/28 04:35:49;;;;;;;13.03;8.50;;;9.20;91.50;;;;;;4963753;28;20439;-84
2021/05/28 04:38:15;;;;;;;15.10;9.20;;;9.20;91.40;;;;;;4994585;28;20588;-82
2021/05/28 04:40:40;;;;;;;16.70;9.47;;;9.20;91.30;;;;;;4978764;28;20403;-82
2021/05/28 04:43:06;;;;;;;14.70;9.53;;;9.30;91.30;;;;;;4995172;28;20168;-83
2021/05/28 04:45:32;;;;;;;15.63;10.17;;;9.30;91.20;;;;;;4986173;28;20550;-84
2021/05/28 04:47:57;;;;;;;15.90;10.47;;;9.30;91.20;;;;;;4964180;28;20196;-84
2021/05/28 04:50:30;;;;;;;12.30;9.13;;;9.40;91.20;;;;;;4986688;28;20170;-82
2021/05/28 04:52:58;;;;;;;13.00;8.47;;;9.40;91.20;;;;;;4982097;28;20176;-82
2021/05/28 04:55:24;;;;;;;19.23;11.27;;;9.50;91.10;;;;;;4982703;28;20474;-82
2021/05/28 04:57:50;;;;;;;13.23;8.67;;;9.50;91.10;;;;;;4999710;28;20443;-82
2021/05/28 05:00:16;;;;;;;12.30;9.60;;;9.50;91.00;;;;;;4998531;28;20483;-82
2021/05/28 05:02:42;;;;;;;18.27;11.23;;;9.60;91.00;;;;;;4972801;28;20236;-84
2021/05/28 05:05:08;;;;;;;19.40;11.03;;;9.70;91.00;;;;;;4982720;28;20487;-83
2021/05/28 05:07:34;;;;;;;14.33;10.40;;;9.70;91.00;;;;;;4980389;28;20910;-83
2021/05/28 05:10:00;;;;;;;18.30;10.50;;;9.70;90.90;;;;;;4962441;28;20488;-83
2021/05/28 05:12:25;;;;;;;15.87;11.97;;;9.80;90.90;;;;;;4962888;28;20168;-83
2021/05/28 05:14:51;;;;;;;13.20;10.83;;;9.80;90.80;;;;;;4962772;28;20237;-82
2021/05/28 05:17:17;;;;;;;16.90;11.57;;;9.90;90.70;;;;;;4991605;28;20153;-82
2021/05/28 05:19:44;;;;;;;16.23;12.30;;;9.90;90.70;;;;;;4964854;28;20207;-83
2021/05/28 05:22:10;;;;;;;18.67;12.87;;;10.00;90.10;;;;;;4965609;28;20181;-81
2021/05/28 05:24:35;;;;;;;24.53;12.43;;;10.00;90.00;;;;;;4964554;28;20462;-83
2021/05/28 05:27:01;;;;;;;20.33;13.67;;;10.10;90.10;;;;;;4987306;28;20168;-83
2021/05/28 05:29:27;;;;;;;24.93;13.80;;;10.20;90.00;;;;;;4949808;28;20308;-81
2021/05/28 05:31:53;;;;;;;21.37;12.87;;;10.30;90.00;;;;;;4968608;23;20485;-77
2021/05/28 05:34:19;;;;;;;33.33;12.60;;;10.30;89.70;;;;;;4939975;28;20177;-78
2021/05/28 05:36:45;;;;;;;26.13;12.70;;;10.40;89.30;;;;;;4952203;29;20429;-79
2021/05/28 05:39:11;;;;;;;19.63;14.23;;;10.50;89.20;;;;;;4952651;29;20457;-77
2021/05/28 05:41:37;;;;;;;17.93;11.67;;;10.50;88.80;;;;;;4947244;29;20181;-78
2021/05/28 05:44:03;;;;;;;16.50;11.53;;;10.60;88.60;;;;;;4948041;29;20205;-78
2021/05/28 05:46:29;;;;;;;23.27;13.70;;;10.70;88.30;;;;;;4953681;29;20193;-79
2021/05/28 05:48:55;;;;;;;22.13;14.67;;;10.80;88.30;;;;;;4950068;29;20417;-77
2021/05/28 05:51:21;;;;;;;23.63;13.43;;;11.10;89.20;;;;;;4929933;29;20514;-77
2021/05/28 05:53:47;;;;;;;19.20;11.80;;;12.30;88.10;;;;;;4943472;29;20182;-78
2021/05/28 05:56:12;;;;;;;17.67;10.80;;;14.20;81.40;;;;;;4929151;29;20201;-77
2021/05/28 05:58:40;;;;;;;20.87;11.43;;;16.20;73.70;;;;;;4944608;29;20477;-77
2021/05/28 06:01:06;;;;;;;17.20;12.63;;;17.90;65.90;;;;;;4945622;29;20555;-77
2021/05/28 06:03:33;;;;;;;18.67;11.30;;;19.20;59.80;;;;;;4934942;29;20462;-79
2021/05/28 06:05:58;;;;;;;19.03;12.27;;;20.00;57.00;;;;;;4911578;29;20429;-80
2021/05/28 06:08:24;;;;;;;26.87;12.10;;;20.60;54.70;;;;;;4953048;29;20426;-78
2021/05/28 06:10:50;;;;;;;20.13;11.80;;;21.10;53.10;;;;;;4948003;29;20243;-77
2021/05/28 06:13:16;;;;;;;20.37;11.00;;;21.70;51.50;;;;;;4923204;29;20198;-77
2021/05/28 06:15:42;;;;;;;16.97;12.40;;;22.20;50.60;;;;;;4920362;29;20868;-77
2021/05/28 06:18:08;;;;;;;21.87;12.63;;;22.70;49.00;;;;;;4933735;29;20425;-78
2021/05/28 06:20:34;;;;;;;21.13;11.93;;;23.30;47.80;;;;;;4949124;29;20231;-78
2021/05/28 06:23:00;;;;;;;18.00;11.00;;;23.90;46.00;;;;;;4950148;29;20170;-77
2021/05/28 06:25:26;;;;;;;22.60;10.77;;;24.10;44.90;;;;;;4925436;29;20871;-74
2021/05/28 06:27:52;;;;;;;17.10;11.90;;;24.50;44.00;;;;;;4921844;29;20178;-76
2021/05/28 06:30:18;;;;;;;21.27;13.17;;;25.00;43.10;;;;;;4936048;29;20458;-75
2021/05/28 06:32:44;;;;;;;17.47;12.43;;;25.40;42.10;;;;;;4920955;29;20193;-75
2021/05/28 06:35:10;;;;;;;15.97;13.10;;;25.70;41.30;;;;;;4922219;29;20424;-75
2021/05/28 06:37:36;;;;;;;19.70;12.20;;;26.00;40.40;;;;;;4939161;29;20173;-75
2021/05/28 06:40:04;;;;;;;15.83;11.70;;;26.30;39.30;;;;;;4918133;29;20493;-76
2021/05/28 06:42:29;;;;;;;16.63;12.27;;;26.70;38.40;;;;;;4918646;29;20417;-75
2021/05/28 06:44:55;;;;;;;16.50;11.67;;;26.80;37.20;;;;;;4937941;29;20464;-76
2021/05/28 06:47:21;;;;;;;19.33;13.17;;;26.80;37.30;;;;;;4920030;29;20180;-75
2021/05/28 06:49:46;;;;;;;14.13;10.37;;;26.70;36.80;;;;;;4933537;29;20205;-74
2021/05/28 06:52:12;;;;;;;16.63;10.07;;;26.60;36.80;;;;;;4936080;29;20174;-75
2021/05/28 06:54:38;;;;;;;15.07;9.97;;;26.70;36.50;;;;;;4936142;29;20307;-75
2021/05/28 06:57:04;;;;;;;13.97;8.60;;;26.90;34.90;;;;;;4918982;29;20184;-75
2021/05/28 06:59:30;;;;;;;12.00;9.57;;;26.50;35.00;;;;;;4936602;29;20194;-75
2021/05/28 07:01:56;;;;;;;11.63;9.50;;;25.30;35.70;;;;;;4926678;29;20410;-76
2021/05/28 07:04:22;;;;;;;9.53;8.37;;;24.40;37.30;;;;;;4935735;29;20528;-74
2021/05/28 07:06:48;;;;;;;11.83;7.60;;;24.00;37.30;;;;;;4935907;29;20166;-77
2021/05/28 07:09:14;;;;;;;10.57;8.27;;;23.90;38.00;;;;;;4934864;29;20957;-75
2021/05/28 07:11:40;;;;;;;13.23;9.20;;;24.10;38.10;;;;;;4936595;29;20166;-74
2021/05/28 07:14:06;;;;;;;10.40;7.30;;;24.60;37.20;;;;;;4918091;29;20796;-76
2021/05/28 07:16:32;;;;;;;11.33;8.73;;;25.20;36.40;;;;;;4905469;29;20192;-77
2021/05/28 07:18:57;;;;;;;13.37;8.73;;;26.10;35.90;;;;;;4935610;29;20217;-75
2021/05/28 07:21:25;;;;;;;14.50;9.57;;;26.80;35.00;;;;;;4937166;29;20472;-75
2021/05/28 07:23:50;;;;;;;16.23;9.83;;;27.60;34.30;;;;;;4919258;29;20256;-76
2021/05/28 07:26:16;;;;;;;12.20;10.10;;;28.20;33.60;;;;;;4919868;29;20461;-76
2021/05/28 07:28:42;;;;;;;17.93;11.03;;;28.90;33.00;;;;;;4920691;29;20231;-76
2021/05/28 07:31:08;;;;;;;16.80;11.00;;;29.60;32.40;;;;;;4937145;29;20442;-76
2021/05/28 07:33:34;;;;;;;15.83;10.17;;;30.30;30.90;;;;;;4936542;29;20784;-75
2021/05/28 07:36:00;;;;;;;15.33;9.07;;;30.40;30.50;;;;;;4920288;29;20174;-76
2021/05/28 07:38:26;;;;;;;12.93;9.60;;;31.00;29.70;;;;;;4937615;29;20193;-75
2021/05/28 07:40:52;;;;;;;15.63;9.63;;;31.30;29.10;;;;;;4935169;29;20449;-75
2021/05/28 07:43:18;;;;;;;11.63;9.30;;;31.60;28.80;;;;;;4936923;29;20188;-75
2021/05/28 07:45:49;;;;;;;6.47;5.40;;;32.10;28.00;;;;;;4918161;29;20579;-75
2021/05/28 07:48:17;;;;;;;9.93;6.80;;;32.40;27.50;;;;;;4949953;29;20600;-77
2021/05/28 07:50:46;;;;;;;13.20;9.63;;;32.50;26.60;;;;;;4937019;29;20548;-76
2021/05/28 07:53:19;;;;;;;11.07;9.97;;;32.80;26.40;;;;;;4940114;29;20421;-77
2021/05/28 07:55:45;;;;;;;11.73;8.47;;;32.70;26.50;;;;;;4946852;29;20465;-78
2021/05/28 07:58:14;;;;;;;13.20;8.87;;;32.80;26.50;;;;;;4928394;29;20452;-77
2021/05/28 08:00:40;;;;;;;8.70;7.63;;;32.90;26.10;;;;;;4927324;29;20238;-77
2021/05/28 08:03:06;;;;;;;9.37;8.40;;;32.70;26.40;;;;;;4943865;29;20405;-77
2021/05/28 08:05:32;;;;;;;11.40;9.17;;;33.10;25.90;;;;;;4942956;29;20416;-77
2021/05/28 08:07:59;;;;;;;10.77;8.93;;;33.20;25.90;;;;;;4946849;29;20161;-77
2021/05/28 08:10:29;;;;;;;9.30;7.73;;;33.40;25.80;;;;;;4942114;29;20264;-77
2021/05/28 08:12:58;;;;;;;11.37;9.00;;;32.20;26.10;;;;;;4927934;29;20433;-78
2021/05/28 08:15:24;;;;;;;10.80;8.83;;;30.00;27.80;;;;;;4926603;29;20461;-78
2021/05/28 08:17:50;;;;;;;12.97;8.87;;;28.60;29.60;;;;;;4943254;29;20177;-76
2021/05/28 08:20:16;;;;;;;11.30;8.70;;;27.70;30.00;;;;;;4923816;29;20189;-76
2021/05/28 08:22:44;;;;;;;13.40;7.70;;;27.10;31.00;;;;;;4923643;29;20425;-77
2021/05/28 08:25:14;;;;;;;16.20;7.77;;;26.20;32.80;;;;;;4942065;29;20425;-76
2021/05/28 08:27:40;;;;;;;10.97;7.90;;;25.40;34.30;;;;;;4928345;29;20437;-76
2021/05/28 08:30:07;;;;;;;16.60;8.03;;;26.30;33.60;;;;;;4943108;29;20452;-77
2021/05/28 08:32:33;;;;;;;8.03;6.00;;;27.90;31.60;;;;;;4946022;29;20437;-78
2021/05/28 08:34:59;;;;;;;6.67;5.17;;;29.10;29.80;;;;;;4946409;29;20507;-78
2021/05/28 08:37:24;;;;;;;12.97;6.20;;;28.90;28.60;;;;;;4942722;29;20188;-77
2021/05/28 08:39:50;;;;;;;6.10;4.47;;;28.40;29.00;;;;;;4937045;29;20213;-76
2021/05/28 08:42:20;;;;;;;7.37;4.73;;;28.60;28.40;;;;;;4929176;29;20170;-77
2021/05/28 08:44:50;;;;;;;7.63;5.10;;;29.80;28.00;;;;;;4920315;29;20446;-76
2021/05/28 08:47:16;;;;;;;8.03;6.47;;;30.60;27.40;;;;;;4941058;29;20422;-75
2021/05/28 08:49:47;;;;;;;7.63;6.93;;;31.20;27.00;;;;;;4945047;29;20469;-77
2021/05/28 08:52:13;;;;;;;6.73;6.07;;;31.40;26.70;;;;;;4927691;29;20182;-77
2021/05/28 08:54:42;;;;;;;11.50;7.60;;;30.40;27.20;;;;;;4925795;29;20452;-76
2021/05/28 08:57:11;;;;;;;10.10;7.77;;;29.00;28.80;;;;;;4943936;29;20392;-78
2021/05/28 08:59:38;;;;;;;8.70;7.53;;;29.00;29.10;;;;;;4942302;29;20512;-77
2021/05/28 09:02:04;;;;;;;10.57;7.30;;;29.80;28.50;;;;;;4934850;29;20233;-76
2021/05/28 09:04:29;;;;;;;10.53;6.73;;;30.70;27.50;;;;;;4927564;29;20400;-77
2021/05/28 09:06:55;;;;;;;8.10;7.27;;;30.60;27.10;;;;;;4946471;29;20181;-78
2021/05/28 09:09:27;;;;;;;8.63;7.13;;;29.90;27.50;;;;;;4923965;29;20555;-77
2021/05/28 09:12:01;;;;;;;9.07;6.53;;;30.50;27.40;;;;;;4942978;29;20192;-77
2021/05/28 09:14:41;;;;;;;10.40;9.30;;;30.40;27.10;;;;;;4926307;29;20505;-78
2021/05/28 09:17:12;;;;;;;9.40;6.70;;;30.80;27.00;;;;;;4927650;29;20435;-77
2021/05/28 09:19:39;;;;;;;8.60;6.13;;;31.80;26.40;;;;;;4948449;29;20449;-77
2021/05/28 09:22:07;;;;;;;13.07;7.13;;;32.10;25.80;;;;;;4914322;29;20428;-78
2021/05/28 09:24:43;;;;;;;7.00;6.30;;;32.40;25.20;;;;;;4939613;29;20437;-78
2021/05/28 09:27:18;;;;;;;8.00;6.43;;;31.20;25.80;;;;;;4938004;29;20578;-75
2021/05/28 09:30:19;;;;;;;8.53;5.33;;;29.30;27.90;;;;;;4940516;29;20866;-77
2021/05/28 09:32:47;;;;;;;6.87;5.83;;;29.00;28.30;;;;;;4940979;29;20453;-78
2021/05/28 09:35:19;;;;;;;7.90;5.50;;;27.90;29.20;;;;;;4939487;29;20461;-76
2021/05/28 09:37:52;;;;;;;6.93;5.90;;;26.20;31.00;;;;;;4942357;29;20437;-77
2021/05/28 09:40:31;;;;;;;5.27;4.77;;;25.60;32.40;;;;;;4940283;29;20449;-77
2021/05/28 09:43:00;;;;;;;7.80;5.57;;;26.20;31.60;;;;;;4949446;29;20426;-77
2021/05/28 09:45:32;;;;;;;5.60;4.00;;;27.50;29.70;;;;;;4931821;29;20513;-77
2021/05/28 09:48:02;;;;;;;5.03;4.30;;;28.60;28.80;;;;;;4944543;29;20445;-78
2021/05/28 09:50:33;;;;;;;6.97;4.10;;;29.80;27.90;;;;;;4922342;29;20419;-77
2021/05/28 09:53:30;;;;;;;5.80;4.10;;;31.10;26.30;;;;;;4928584;29;20435;-77
2021/05/28 09:56:21;;;;;;;4.17;3.77;;;32.50;25.00;;;;;;4937765;29;20827;-77
2021/05/28 09:58:57;;;;;;;9.30;4.23;;;33.20;23.30;;;;;;4903212;29;20411;-78
2021/05/28 10:01:23;;;;;;;5.10;4.60;;;31.70;24.70;;;;;;4916450;29;20472;-77
2021/05/28 10:04:04;;;;;;;4.67;4.27;;;30.70;25.30;;;;;;4948171;29;20464;-77
2021/05/28 10:06:31;;;;;;;5.47;4.90;;;29.10;26.30;;;;;;4936814;29;21051;-76
2021/05/28 10:08:59;;;;;;;3.60;3.30;;;27.90;27.80;;;;;;4935990;29;20447;-77
2021/05/28 10:11:26;;;;;;;4.33;3.93;;;27.90;28.30;;;;;;4932346;29;20428;-76
2021/05/28 10:13:56;;;;;;;7.17;5.20;;;28.30;27.50;;;;;;4920135;29;20435;-78
2021/05/28 10:16:24;;;;;;;4.37;3.60;;;28.40;28.00;;;;;;4936724;29;20488;-78
2021/05/28 10:19:02;;;;;;;5.67;3.77;;;27.70;28.80;;;;;;4936591;29;20414;-77
2021/05/28 10:21:32;;;;;;;4.20;3.33;;;27.00;29.10;;;;;;4916570;29;20452;-77
2021/05/28 10:24:02;;;;;;;4.07;3.47;;;26.40;29.40;;;;;;4917686;29;20438;-76
2021/05/28 10:26:29;;;;;;;5.20;4.07;;;26.50;29.70;;;;;;4918308;29;20461;-78
2021/05/28 10:28:56;;;;;;;7.43;3.83;;;27.60;28.80;;;;;;4936168;29;20437;-77
2021/05/28 10:31:51;;;;;;;3.90;3.50;;;27.80;28.90;;;;;;4920398;29;20441;-78
2021/05/28 10:34:24;;;;;;;5.07;3.87;;;28.60;28.10;;;;;;4941291;29;20480;-77
2021/05/28 10:36:50;;;;;;;6.40;4.13;;;28.60;27.90;;;;;;4936395;29;20787;-77
2021/05/28 10:39:20;;;;;;;4.50;3.87;;;29.50;27.30;;;;;;4917842;29;20424;-77
2021/05/28 10:42:12;;;;;;;4.20;3.87;;;30.40;26.30;;;;;;4937213;29;20433;-76
2021/05/28 10:44:41;;;;;;;4.63;3.77;;;30.70;26.00;;;;;;4919052;29;20461;-77
2021/05/28 10:47:13;;;;;;;4.47;3.77;;;30.30;26.10;;;;;;4935766;29;20966;-76
2021/05/28 10:49:46;;;;;;;5.47;3.50;;;29.20;26.80;;;;;;4920056;29;20467;-77
2021/05/28 10:52:29;;;;;;;8.40;5.17;;;28.10;28.20;;;;;;4936568;29;20405;-77
2021/05/28 10:55:02;;;;;;;5.10;3.80;;;27.40;29.10;;;;;;4919864;29;20461;-78
2021/05/28 10:57:32;;;;;;;3.37;2.33;;;26.70;29.70;;;;;;4936747;29;20429;-77
2021/05/28 11:00:03;;;;;;;3.57;3.00;;;25.70;30.30;;;;;;4917677;29;20460;-76
2021/05/28 11:02:45;;;;;;;4.83;2.80;;;25.00;31.00;;;;;;4921003;29;20426;-78
2021/05/28 11:05:11;;;;;;;4.97;2.47;;;24.40;31.90;;;;;;4920761;29;20414;-77
2021/05/28 11:07:42;;;;;;;2.10;1.90;;;23.90;32.80;;;;;;4937485;29;20946;-78
2021/05/28 11:10:23;;;;;;;3.10;2.33;;;23.70;33.00;;;;;;4937812;29;20934;-77
2021/05/28 11:12:49;;;;;;;4.23;2.37;;;23.50;32.80;;;;;;4937864;29;20517;-78
2021/05/28 11:15:23;;;;;;;4.40;2.93;;;23.20;33.50;;;;;;4923116;29;20688;-78
2021/05/28 11:17:55;;;;;;;6.60;2.37;;;23.20;34.10;;;;;;4922374;29;21030;-78
2021/05/28 11:20:31;;;;;;;3.87;2.60;;;23.20;33.30;;;;;;4937493;29;20448;-77
2021/05/28 11:22:59;;;;;;;4.10;3.33;;;22.80;33.90;;;;;;4943268;29;20417;-78
2021/05/28 11:25:33;;;;;;;4.20;2.37;;;22.40;34.70;;;;;;4940143;29;20973;-79
2021/05/28 11:28:08;;;;;;;5.70;3.40;;;22.30;35.10;;;;;;4943533;29;20422;-78
2021/05/28 11:30:44;;;;;;;5.03;2.70;;;22.40;35.20;;;;;;4948211;28;20467;-77
2021/05/28 11:33:32;;;;;;;8.77;2.73;;;22.80;34.90;;;;;;4938956;29;20572;-77
2021/05/28 11:35:58;;;;;;;3.33;2.47;;;23.00;34.00;;;;;;4935506;29;20461;-77
2021/05/28 11:38:37;;;;;;;4.30;2.80;;;23.10;33.90;;;;;;4938144;29;20406;-77
2021/05/28 11:41:06;;;;;;;3.27;2.50;;;23.30;34.00;;;;;;4936879;29;20452;-78
2021/05/28 11:43:35;;;;;;;3.20;2.87;;;23.50;34.10;;;;;;4937845;29;20430;-78
2021/05/28 11:46:02;;;;;;;4.20;2.53;;;23.50;33.60;;;;;;4919843;29;20472;-77
2021/05/28 11:48:29;;;;;;;3.90;3.20;;;23.40;33.20;;;;;;4934947;29;20427;-78
2021/05/28 11:51:01;;;;;;;10.47;6.77;;;23.30;33.50;;;;;;4936388;29;20954;-77
2021/05/28 11:53:35;;;;;;;5.63;2.57;;;23.30;34.40;;;;;;4919463;29;20588;-78
2021/05/28 11:56:02;;;;;;;4.87;2.50;;;23.30;34.40;;;;;;4921403;29;20472;-78
2021/05/28 11:58:34;;;;;;;4.53;3.30;;;23.10;33.60;;;;;;4942838;29;20433;-77
2021/05/28 12:01:02;;;;;;;2.97;2.10;;;22.90;33.80;;;;;;4906264;29;20448;-78
2021/05/28 12:03:30;;;;;;;4.07;2.20;;;22.60;33.80;;;;;;4922998;29;20444;-79
2021/05/28 12:06:04;;;;;;;3.70;2.50;;;22.30;33.50;;;;;;4905143;29;20458;-78
2021/05/28 12:08:30;;;;;;;4.40;2.63;;;22.00;34.30;;;;;;4920064;29;20470;-79
2021/05/28 12:11:05;;;;;;;4.97;4.10;;;21.80;34.70;;;;;;4936372;29;20448;-78
2021/05/28 12:13:32;;;;;;;4.00;2.50;;;21.80;35.00;;;;;;4905252;29;20173;-78
2021/05/28 12:15:59;;;;;;;11.60;9.80;;;22.00;35.90;;;;;;4940926;29;20467;-78
2021/05/28 12:18:27;;;;;;;6.13;3.47;;;22.30;36.10;;;;;;4939711;29;20461;-78
2021/05/28 12:21:01;;;;;;;4.40;3.67;;;22.50;35.90;;;;;;4920238;29;20439;-77
2021/05/28 12:23:29;;;;;;;4.73;4.00;;;22.40;36.10;;;;;;4938008;29;20446;-78
2021/05/28 12:26:00;;;;;;;8.23;4.70;;;22.20;37.10;;;;;;4940121;29;20448;-78
2021/05/28 12:28:37;;;;;;;5.30;2.87;;;22.20;37.70;;;;;;4923963;29;20773;-77
2021/05/28 12:31:12;;;;;;;12.63;4.60;;;22.10;36.90;;;;;;4928501;29;20458;-77
2021/05/28 12:33:39;;;;;;;4.73;2.97;;;22.10;36.00;;;;;;4928361;29;20432;-77
2021/05/28 12:36:13;;;;;;;3.10;2.17;;;22.20;35.80;;;;;;4946747;29;20440;-79
2021/05/28 12:38:42;;;;;;;3.70;2.33;;;21.90;34.10;;;;;;4928781;29;20447;-77
2021/05/28 12:41:10;;;;;;;4.03;2.90;;;21.70;35.60;;;;;;4903519;29;20438;-77
2021/05/28 12:43:41;;;;;;;2.23;2.03;;;21.70;36.20;;;;;;4935742;29;20849;-77
2021/05/28 12:46:21;;;;;;;3.43;1.97;;;21.90;35.70;;;;;;4942279;29;20433;-77
2021/05/28 12:48:52;;;;;;;6.37;2.13;;;22.00;35.10;;;;;;4937145;29;20428;-77